A- A+ FrançaisEnglishEspañol中国

le plus proche LFBT Tarbes-Lourdes-PyrénéesLFCI Albi-Le-SequestreLFRN Rennes-St-Jacques LFBS Biscarrosse-Parentis

manche à air

La météo aéronautique pour les pilotes, la préparation du vol avec les METAR (METeorological Aerodrome Report, message d'observation des conditions météorologiques pour l'aviation) et Les TAF (Terminal Aerodrome Forecast : message de prévision à court terme des conditions météorologiques pour l'aviation). Et les autres ressources comme les VAC (Visual Approch Chart) et les NOTAM (Notice To Airman) pour préprer les vols.

Aéroport Edmonton Villeneuve (Canada) / OACI CZVL

L'altitude de l'aéroport Edmonton Villeneuve est de 688 m=2257 ft. Il est situé à proximité de Edmonton (Canada). La météo générale à 5 jours est disponible pour St. Albert situé à 14.9 km.

METAR de l'aéroport Edmonton Villeneuve - CZVL

CZVL 081300Z AUTO 35013G19KT 9SM FEW130 M03/M07 A2985 RMK SLP137

Décodage du METAR de l'aéroport Edmonton Villeneuve (CA)

METAR émis par CZVL le mardi 8 octobre 2019 à 13:00 heure TU. C'est un METAR généré automatiquement. Attention ce METAR est obsolète car il a été émis il y a 13 heure et 53 minutes.

La visibilité est de 14.5 km=9 sm.

La température est de -3°C=27 °F et le point rosée est de -7°C=19 °F . Ce qui correspond à 74% d'humidité relative.

Le QNH est de 1011 hPa=29.85 inHg

Vent de 13 kt=24 km/h avec des rafales à 19 kt =35 km/h, orienté à 350°.

Nuages : Quelques nuages à 13000 ft=3960 mètres.

RMK SLP137

TAF de l'aéroport Edmonton Villeneuve - CZVL

CZVL 150641Z 1506/1518 VRB03KT 2SM BR OVC004 TEMPO 1506/1517 P6SM NSW SCT004 OVC010 BECMG 1507/1509 15006KT FM151700 14012G22KT P6SM SCT006 SCT120 BKN180 TEMPO 1517/1518 BKN006 BKN120 BKN180 RMK FCST BASED ON AUTO OBS. NXT FCST BY 151200Z

CZVL 150641Z 1506/1518 VRB03KT 2SM brume couverture nuageuse soudée à 004 temporairement 1506/1517 P6SM NSW nuages épars à 004 couverture nuageuse soudée à 010 devenant 1507/1509 15006KT FM151700 14012G22KT P6SM nuages épars à 006 nuages épars à 120 couverture nuageuse fragmentée à 180 temporairement 1517/1518 couverture nuageuse fragmentée à 006 couverture nuageuse fragmentée à 120 couverture nuageuse fragmentée à 180 remarques trombe ST BASED ON AUTO OBS. NXT trombe ST BY 151200Z

Aéroport à proximité de Edmonton Villeneuve

Météo générale à 5 jours à St. Albert (14.9 km)CYEG Aéroport Edmonton (44 km)CYWM Aéroport Athabasca (127 km)CYZU Aéroport Whitecourt (137 km)CYRM Aéroport Rocky Mountain House (154 km)CYQF Aéroport Red Deer Industrial (165 km)CYLB Aéroport Lac La Bitche (170 km)

Vue aérienne de l'aéroport Edmonton Villeneuve

NOTAM de l'aéroport Edmonton Villeneuve

Les NOTAM sont fournis sans aucune garantie de leur actualité. Le pilote est le seul responsable de la vérification de sa validité avant de l'utiliser opérationnellement pour préparer un vol ou l'utiliser lors de sa navigation.

Pas de NOTAM

Sources des données